createdAt,value
2019-02-23T00:01:15.154Z,59.18
2019-02-23T00:03:44.251Z,59.22
2019-02-23T00:06:13.331Z,59.26
2019-02-23T00:08:42.445Z,59.29
2019-02-23T00:11:11.577Z,59.26
2019-02-23T00:13:40.864Z,59.28
2019-02-23T00:16:09.893Z,59.33
2019-02-23T00:18:38.971Z,59.33
2019-02-23T00:21:08.096Z,59.34
2019-02-23T00:23:37.233Z,59.31
2019-02-23T00:26:06.341Z,59.30
2019-02-23T00:28:35.417Z,59.29
2019-02-23T00:31:04.510Z,59.21
2019-02-23T00:33:33.592Z,59.24
2019-02-23T00:36:02.688Z,59.28
2019-02-23T00:38:31.769Z,59.27
2019-02-23T00:41:00.831Z,59.23
2019-02-23T00:43:29.945Z,59.24
2019-02-23T00:45:59.034Z,59.26
2019-02-23T00:48:28.198Z,59.29
2019-02-23T00:50:57.228Z,59.34
2019-02-23T00:53:26.329Z,59.30
2019-02-23T00:55:55.425Z,59.29
2019-02-23T00:58:24.543Z,59.32
2019-02-23T01:00:53.649Z,59.35
2019-02-23T01:03:22.731Z,59.30
2019-02-23T01:05:51.789Z,59.35
2019-02-23T01:08:20.855Z,59.34
2019-02-23T01:10:57.790Z,59.34
2019-02-23T01:13:20.893Z,59.34
2019-02-23T01:15:50.127Z,59.33
2019-02-23T01:18:19.243Z,59.33
2019-02-23T01:20:48.372Z,59.37
2019-02-23T01:23:17.492Z,59.32
2019-02-23T01:25:46.584Z,59.28
2019-02-23T01:28:15.708Z,59.26
2019-02-23T01:30:44.889Z,59.34
2019-02-23T01:33:14.063Z,59.32
2019-02-23T01:35:43.148Z,59.31
2019-02-23T01:38:12.347Z,59.29
2019-02-23T01:40:41.532Z,59.25
2019-02-23T01:43:10.669Z,59.25
2019-02-23T01:45:42.577Z,59.21
2019-02-23T01:48:10.686Z,59.15
2019-02-23T01:50:39.911Z,59.12
2019-02-23T01:53:09.070Z,59.08
2019-02-23T01:55:38.212Z,59.05
2019-02-23T01:58:07.282Z,58.95
2019-02-23T02:00:36.400Z,58.89
2019-02-23T02:03:05.508Z,58.87
2019-02-23T02:05:34.728Z,58.83
2019-02-23T02:08:03.826Z,58.82
2019-02-23T02:10:33.179Z,58.83
2019-02-23T02:13:02.331Z,58.74
2019-02-23T02:15:31.550Z,58.75
2019-02-23T02:18:00.702Z,58.77
2019-02-23T02:20:29.842Z,58.76
2019-02-23T02:22:58.996Z,58.77
2019-02-23T02:25:28.368Z,58.76
2019-02-23T02:27:57.513Z,58.69
2019-02-23T02:30:26.748Z,58.73
2019-02-23T02:32:55.852Z,58.70
2019-02-23T02:35:24.977Z,58.72
2019-02-23T02:37:54.089Z,58.65
2019-02-23T02:40:23.263Z,58.59
2019-02-23T02:42:52.591Z,58.53
2019-02-23T02:45:21.707Z,58.53
2019-02-23T02:47:50.835Z,58.44
2019-02-23T02:50:24.415Z,58.47
2019-02-23T02:52:50.804Z,58.49
2019-02-23T02:55:19.949Z,58.52
2019-02-23T02:57:49.047Z,58.52
2019-02-23T03:00:18.101Z,58.54
2019-02-23T03:02:47.095Z,58.50
2019-02-23T03:05:16.228Z,58.46
2019-02-23T03:07:45.290Z,58.43
2019-02-23T03:10:14.382Z,58.28
2019-02-23T03:12:43.449Z,58.35
2019-02-23T03:15:12.565Z,58.33
2019-02-23T03:17:41.672Z,58.37
2019-02-23T03:20:10.779Z,58.41
2019-02-23T03:22:39.820Z,58.44
2019-02-23T03:25:08.990Z,58.47
2019-02-23T03:27:38.060Z,58.44
2019-02-23T03:30:08.731Z,58.48
2019-02-23T03:32:37.839Z,58.45
2019-02-23T03:35:06.949Z,58.41
2019-02-23T03:37:36.030Z,58.45
2019-02-23T03:40:05.600Z,58.48
2019-02-23T03:42:34.715Z,58.54
2019-02-23T03:45:03.834Z,58.51
2019-02-23T03:47:32.923Z,58.43
2019-02-23T03:50:02.042Z,58.39
2019-02-23T03:52:31.123Z,58.39
2019-02-23T03:55:00.385Z,58.32
2019-02-23T03:57:31.575Z,58.28
2019-02-23T04:00:00.652Z,58.17
2019-02-23T04:02:29.790Z,58.15
2019-02-23T04:04:58.924Z,58.20
2019-02-23T04:07:27.980Z,58.17
2019-02-23T04:09:57.040Z,58.08
2019-02-23T04:12:26.107Z,58.01
2019-02-23T04:14:55.184Z,57.91
2019-02-23T04:17:24.283Z,57.83
2019-02-23T04:19:53.394Z,57.82
2019-02-23T04:22:22.529Z,57.67
2019-02-23T04:24:51.680Z,57.55
2019-02-23T04:27:20.770Z,57.44
2019-02-23T04:29:49.842Z,57.37
2019-02-23T04:32:18.956Z,57.28
2019-02-23T04:34:48.072Z,57.26
2019-02-23T04:37:17.195Z,57.21
2019-02-23T04:39:46.274Z,57.11
2019-02-23T04:42:15.414Z,57.07
2019-02-23T04:44:44.520Z,57.05
2019-02-23T04:47:13.624Z,57.07
2019-02-23T04:49:42.670Z,57.04
2019-02-23T04:52:11.777Z,57.06
2019-02-23T04:54:40.864Z,57.11
2019-02-23T04:57:09.956Z,57.07
2019-02-23T04:59:39.030Z,57.07
2019-02-23T05:02:08.152Z,56.93
2019-02-23T05:04:37.236Z,56.94
2019-02-23T05:07:06.302Z,56.91
2019-02-23T05:09:35.370Z,56.87
2019-02-23T05:12:04.449Z,56.91
2019-02-23T05:14:33.551Z,56.91
2019-02-23T05:17:02.645Z,56.99
2019-02-23T05:19:31.720Z,57.03
2019-02-23T05:22:00.792Z,57.26
2019-02-23T05:24:29.814Z,57.26
2019-02-23T05:26:58.864Z,57.30
2019-02-23T05:29:27.967Z,57.35
2019-02-23T05:31:57.003Z,57.38
2019-02-23T05:34:26.087Z,57.31
2019-02-23T05:36:55.145Z,57.30
2019-02-23T05:39:24.215Z,57.32
2019-02-23T05:41:53.279Z,57.34
2019-02-23T05:44:22.344Z,57.37
2019-02-23T05:46:51.403Z,57.43
2019-02-23T05:49:20.491Z,57.38
2019-02-23T05:51:49.564Z,57.32
2019-02-23T05:54:18.666Z,57.46
2019-02-23T05:56:47.716Z,57.38
2019-02-23T05:59:16.828Z,57.42
2019-02-23T06:01:45.854Z,57.42
2019-02-23T06:04:14.935Z,57.40
2019-02-23T06:06:44.077Z,57.47
2019-02-23T06:09:13.147Z,57.36
2019-02-23T06:11:42.270Z,57.33
2019-02-23T06:14:11.342Z,57.33
2019-02-23T06:16:40.422Z,57.38
2019-02-23T06:19:09.508Z,57.29
2019-02-23T06:21:52.289Z,57.26
2019-02-23T06:24:09.530Z,57.28
2019-02-23T06:26:38.678Z,57.40
2019-02-23T06:29:07.770Z,57.42
2019-02-23T06:31:36.868Z,57.42
2019-02-23T06:34:15.477Z,57.51
2019-02-23T06:36:36.767Z,57.49
2019-02-23T06:39:06.414Z,57.52
2019-02-23T06:41:35.496Z,57.49
2019-02-23T06:44:04.617Z,57.43
2019-02-23T06:46:33.742Z,57.36
2019-02-23T06:49:02.797Z,57.24
2019-02-23T06:51:31.849Z,57.19
2019-02-23T06:54:00.977Z,57.19
2019-02-23T06:56:30.074Z,57.00
2019-02-23T06:58:59.227Z,56.83
2019-02-23T07:01:28.262Z,56.73
2019-02-23T07:03:57.299Z,56.60
2019-02-23T07:06:26.500Z,56.35
2019-02-23T07:08:55.563Z,56.12
2019-02-23T07:11:24.645Z,55.86
2019-02-23T07:13:53.706Z,55.65
2019-02-23T07:16:22.786Z,55.26
2019-02-23T07:18:51.956Z,54.36
2019-02-23T07:21:21.101Z,53.61
2019-02-23T07:23:50.243Z,52.89
2019-02-23T07:26:19.368Z,50.81
2019-02-23T07:28:48.407Z,48.86
2019-02-23T07:31:17.496Z,47.94
2019-02-23T07:33:46.569Z,48.02
2019-02-23T07:36:15.674Z,47.44
2019-02-23T07:38:44.881Z,46.31
2019-02-23T07:41:14.029Z,46.02
2019-02-23T07:43:43.077Z,45.31
2019-02-23T07:46:12.273Z,44.48
2019-02-23T07:48:41.459Z,43.68
2019-02-23T07:51:10.608Z,42.08
2019-02-23T07:53:39.666Z,41.24
2019-02-23T07:56:08.811Z,41.24
2019-02-23T07:58:38.062Z,40.44
2019-02-23T08:01:07.195Z,40.08
2019-02-23T08:03:36.276Z,39.05
2019-02-23T08:06:05.390Z,39.04
2019-02-23T08:08:34.469Z,38.51
2019-02-23T08:11:03.597Z,37.39
2019-02-23T08:13:32.679Z,36.80
2019-02-23T08:16:01.736Z,36.01
2019-02-23T08:18:30.818Z,35.39
2019-02-23T08:20:59.967Z,35.72
2019-02-23T08:23:29.021Z,35.77
2019-02-23T08:25:58.126Z,34.80
2019-02-23T08:28:27.362Z,33.87
2019-02-23T08:30:56.494Z,33.48
2019-02-23T08:33:25.626Z,32.39
2019-02-23T08:35:54.745Z,31.28
2019-02-23T08:38:23.856Z,30.93
2019-02-23T08:40:52.893Z,29.85
2019-02-23T08:43:21.999Z,28.97
2019-02-23T08:45:51.138Z,28.95
2019-02-23T08:48:20.269Z,28.49
2019-02-23T08:50:49.323Z,27.73
2019-02-23T08:53:18.417Z,27.77
2019-02-23T08:55:47.583Z,26.60
2019-02-23T08:58:16.729Z,26.78
2019-02-23T09:00:45.859Z,26.20
2019-02-23T09:03:14.979Z,25.79
2019-02-23T09:05:44.052Z,25.34
2019-02-23T09:08:13.205Z,25.05
2019-02-23T09:10:42.271Z,24.31
2019-02-23T09:13:11.364Z,24.29
2019-02-23T09:15:40.465Z,23.25
2019-02-23T09:18:09.789Z,22.94
2019-02-23T09:20:39.498Z,22.44
2019-02-23T09:23:08.599Z,22.16
2019-02-23T09:25:37.688Z,20.87
2019-02-23T09:28:06.770Z,20.25
2019-02-23T09:30:35.908Z,20.23
2019-02-23T09:33:04.978Z,19.49
2019-02-23T09:35:34.099Z,19.66
2019-02-23T09:38:03.165Z,18.88
2019-02-23T09:40:32.289Z,18.41
2019-02-23T09:43:01.521Z,18.45
2019-02-23T09:45:31.741Z,18.73
2019-02-23T09:48:01.148Z,18.72
2019-02-23T09:50:30.307Z,18.10
2019-02-23T09:52:59.477Z,16.87
2019-02-23T09:55:28.745Z,15.72
2019-02-23T09:57:57.909Z,15.46
2019-02-23T10:00:27.163Z,15.35
2019-02-23T10:02:56.298Z,14.79
2019-02-23T10:05:25.452Z,14.50
2019-02-23T10:07:54.563Z,14.37
2019-02-23T10:10:23.713Z,13.80
2019-02-23T10:12:52.889Z,13.84
2019-02-23T10:15:22.041Z,13.60
2019-02-23T10:17:51.197Z,12.96
2019-02-23T10:20:20.319Z,12.70
2019-02-23T10:22:49.413Z,12.50
2019-02-23T10:25:18.538Z,12.44
2019-02-23T10:27:47.705Z,12.27
2019-02-23T10:30:16.856Z,11.78
2019-02-23T10:32:45.938Z,11.37
2019-02-23T10:35:15.116Z,11.11
2019-02-23T10:37:44.259Z,10.88
2019-02-23T10:40:13.392Z,10.30
2019-02-23T10:42:42.606Z,10.55
2019-02-23T10:45:11.745Z,10.42
2019-02-23T10:47:40.855Z,10.25
2019-02-23T10:50:10.255Z,10.11
2019-02-23T10:52:39.416Z,9.77
2019-02-23T10:55:09.567Z,10.01
2019-02-23T10:57:38.723Z,9.98
2019-02-23T11:00:14.647Z,9.59
2019-02-23T11:02:43.832Z,9.64
2019-02-23T11:05:13.142Z,9.62
2019-02-23T11:07:42.588Z,9.45
2019-02-23T11:10:11.789Z,9.62
2019-02-23T11:12:41.044Z,9.46
2019-02-23T11:15:10.859Z,9.57
2019-02-23T11:17:39.990Z,9.16
2019-02-23T11:20:09.534Z,9.40
2019-02-23T11:22:38.651Z,9.49
2019-02-23T11:25:08.242Z,9.57
2019-02-23T11:27:37.417Z,9.51
2019-02-23T11:30:07.393Z,9.06
2019-02-23T11:32:36.586Z,9.21
2019-02-23T11:35:05.769Z,8.97
2019-02-23T11:37:34.858Z,8.82
2019-02-23T11:40:04.040Z,7.98
2019-02-23T11:42:33.203Z,7.25
2019-02-23T11:45:02.282Z,7.24
2019-02-23T11:47:31.401Z,7.47
2019-02-23T11:50:00.610Z,7.11
2019-02-23T11:52:29.735Z,7.41
2019-02-23T11:54:58.844Z,7.28
2019-02-23T11:57:28.014Z,7.56
2019-02-23T11:59:57.194Z,7.56
2019-02-23T12:02:26.247Z,7.55
2019-02-23T12:04:55.506Z,7.66
2019-02-23T12:07:24.575Z,7.87
2019-02-23T12:09:53.676Z,8.09
2019-02-23T12:12:22.913Z,8.18
2019-02-23T12:14:52.101Z,8.12
2019-02-23T12:17:21.268Z,8.50
2019-02-23T12:19:50.372Z,8.83
2019-02-23T12:22:19.430Z,9.30
2019-02-23T12:24:48.547Z,9.70
2019-02-23T12:27:17.694Z,9.85
2019-02-23T12:29:46.759Z,9.34
2019-02-23T12:32:15.891Z,8.55
2019-02-23T12:34:44.999Z,9.02
2019-02-23T12:37:14.092Z,9.49
2019-02-23T12:39:43.186Z,9.48
2019-02-23T12:42:12.321Z,9.59
2019-02-23T12:44:41.414Z,9.78
2019-02-23T12:47:10.536Z,10.08
2019-02-23T12:49:39.643Z,10.52
2019-02-23T12:52:08.889Z,11.11
2019-02-23T12:54:37.981Z,11.57
2019-02-23T12:57:07.095Z,12.12
2019-02-23T12:59:36.189Z,12.47
2019-02-23T13:02:05.277Z,12.81
2019-02-23T13:04:34.348Z,13.13
2019-02-23T13:07:03.436Z,13.37
2019-02-23T13:09:35.548Z,13.06
2019-02-23T13:12:18.753Z,13.22
2019-02-23T13:15:01.396Z,13.50
2019-02-23T13:17:45.555Z,14.03
2019-02-23T13:20:43.796Z,14.38
2019-02-23T13:23:58.847Z,14.52
2019-02-23T13:26:52.907Z,14.69
2019-02-23T13:30:18.326Z,15.02
2019-02-23T13:33:15.226Z,15.42
2019-02-23T13:36:11.710Z,15.21
2019-02-23T13:39:09.469Z,15.78
2019-02-23T13:42:15.886Z,16.06
2019-02-23T13:45:31.438Z,16.12
2019-02-23T13:48:24.552Z,16.12
2019-02-23T13:51:24.094Z,16.30
2019-02-23T13:54:39.285Z,16.22
2019-02-23T13:57:41.077Z,16.17
2019-02-23T14:01:00.433Z,16.59
2019-02-23T14:03:56.795Z,16.45
2019-02-23T14:06:58.121Z,16.46
2019-02-23T14:10:13.359Z,16.30
2019-02-23T14:13:32.598Z,16.57
2019-02-23T14:16:23.555Z,16.79
2019-02-23T14:19:19.019Z,16.86
2019-02-23T14:22:02.949Z,16.71
2019-02-23T14:25:17.213Z,16.58
2019-02-23T14:28:39.640Z,16.77
2019-02-23T14:31:59.326Z,16.93
2019-02-23T14:35:27.637Z,17.10
2019-02-23T14:38:42.386Z,17.12
2019-02-23T14:41:48.732Z,17.03
2019-02-23T14:44:55.940Z,17.01
2019-02-23T14:47:53.205Z,16.86
2019-02-23T14:51:08.809Z,16.61
2019-02-23T14:54:25.767Z,16.80
2019-02-23T14:57:57.040Z,17.03
2019-02-23T15:01:01.768Z,17.18
2019-02-23T15:04:14.172Z,17.34
2019-02-23T15:07:01.432Z,17.53
2019-02-23T15:09:59.349Z,17.59
2019-02-23T15:13:24.784Z,17.77
2019-02-23T15:16:18.021Z,17.89
2019-02-23T15:19:23.925Z,17.96
2019-02-23T15:22:34.695Z,17.89
2019-02-23T15:25:42.117Z,17.77
2019-02-23T15:28:38.308Z,17.75
2019-02-23T15:31:37.636Z,17.96
2019-02-23T15:34:46.610Z,18.16
2019-02-23T15:37:41.424Z,18.42
2019-02-23T15:41:00.233Z,18.48
2019-02-23T15:43:42.296Z,18.63
2019-02-23T15:46:48.055Z,18.83
2019-02-23T15:49:33.761Z,19.07
2019-02-23T15:52:07.274Z,19.12
2019-02-23T15:54:36.509Z,19.18
2019-02-23T15:57:05.627Z,19.16
2019-02-23T15:59:34.723Z,18.94
2019-02-23T16:02:03.865Z,18.99
2019-02-23T16:04:33.017Z,19.08
2019-02-23T16:07:02.061Z,19.09
2019-02-23T16:09:31.210Z,19.25
2019-02-23T16:12:00.352Z,19.31
2019-02-23T16:14:29.467Z,19.38
2019-02-23T16:16:58.599Z,19.47
2019-02-23T16:19:27.715Z,19.47
2019-02-23T16:21:56.818Z,19.60
2019-02-23T16:24:25.996Z,19.62
2019-02-23T16:26:55.139Z,19.78
2019-02-23T16:29:24.448Z,19.98
2019-02-23T16:31:53.612Z,19.83
2019-02-23T16:34:22.779Z,19.92
2019-02-23T16:36:51.841Z,20.00
2019-02-23T16:39:20.978Z,20.18
2019-02-23T16:41:50.099Z,20.43
2019-02-23T16:44:19.267Z,20.32
2019-02-23T16:46:48.436Z,20.43
2019-02-23T16:49:17.563Z,20.53
2019-02-23T16:51:46.695Z,20.66
2019-02-23T16:54:15.717Z,20.78
2019-02-23T16:56:44.823Z,21.13
2019-02-23T16:59:13.911Z,21.19
2019-02-23T17:01:42.983Z,21.30
2019-02-23T17:04:12.143Z,21.59
2019-02-23T17:06:41.239Z,21.77
2019-02-23T17:09:10.532Z,22.08
2019-02-23T17:11:39.619Z,22.31
2019-02-23T17:14:08.777Z,22.64
2019-02-23T17:16:37.949Z,22.88
2019-02-23T17:19:07.128Z,23.19
2019-02-23T17:21:36.309Z,23.73
2019-02-23T17:24:05.536Z,24.10
2019-02-23T17:26:36.806Z,24.67
2019-02-23T17:29:05.465Z,24.93
2019-02-23T17:31:34.594Z,25.51
2019-02-23T17:34:03.724Z,25.81
2019-02-23T17:36:32.815Z,26.09
2019-02-23T17:39:01.946Z,26.23
2019-02-23T17:41:31.055Z,26.59
2019-02-23T17:44:00.292Z,26.81
2019-02-23T17:46:29.423Z,26.94
2019-02-23T17:48:58.527Z,26.60
2019-02-23T17:51:27.626Z,27.15
2019-02-23T17:53:56.691Z,27.23
2019-02-23T17:56:25.717Z,27.63
2019-02-23T17:58:54.802Z,27.93
2019-02-23T18:01:25.459Z,28.00
2019-02-23T18:03:54.766Z,29.12
2019-02-23T18:06:24.258Z,29.43
2019-02-23T18:08:53.534Z,29.60
2019-02-23T18:11:23.105Z,29.60
2019-02-23T18:13:52.973Z,29.44
2019-02-23T18:16:22.184Z,29.94
2019-02-23T18:18:51.512Z,29.66
2019-02-23T18:21:20.954Z,29.52
2019-02-23T18:23:50.496Z,28.13
2019-02-23T18:26:21.940Z,29.04
2019-02-23T18:28:51.495Z,29.59
2019-02-23T18:31:20.834Z,29.81
2019-02-23T18:33:50.202Z,30.17
2019-02-23T18:36:19.588Z,30.23
2019-02-23T18:38:49.391Z,30.04
2019-02-23T18:41:18.746Z,30.63
2019-02-23T18:43:48.108Z,30.25
2019-02-23T18:46:17.407Z,29.99
2019-02-23T18:48:46.800Z,30.05
2019-02-23T18:51:16.449Z,29.79
2019-02-23T18:53:45.712Z,29.32
2019-02-23T18:56:15.139Z,29.47
2019-02-23T18:58:44.884Z,29.84
2019-02-23T19:01:15.319Z,28.95
2019-02-23T19:03:45.106Z,28.45
2019-02-23T19:06:14.487Z,29.34
2019-02-23T19:08:44.381Z,29.12
2019-02-23T19:11:13.794Z,28.48
2019-02-23T19:13:43.052Z,28.19
2019-02-23T19:16:12.963Z,28.39
2019-02-23T19:18:42.293Z,27.93
2019-02-23T19:21:11.545Z,27.81
2019-02-23T19:23:40.968Z,28.30
2019-02-23T19:26:10.337Z,27.86
2019-02-23T19:28:43.292Z,27.76
2019-02-23T19:31:11.821Z,28.00
2019-02-23T19:33:41.133Z,27.94
2019-02-23T19:36:10.850Z,27.65
2019-02-23T19:38:40.319Z,28.31
2019-02-23T19:41:09.903Z,27.91
2019-02-23T19:43:39.268Z,27.73
2019-02-23T19:46:08.687Z,27.65
2019-02-23T19:48:38.057Z,27.41
2019-02-23T19:51:10.145Z,27.25
2019-02-23T19:53:40.593Z,27.14
2019-02-23T19:56:09.942Z,26.90
2019-02-23T19:58:39.239Z,26.99
2019-02-23T20:01:08.786Z,26.95
2019-02-23T20:03:38.318Z,26.78
2019-02-23T20:06:08.498Z,27.08
2019-02-23T20:08:37.881Z,27.14
2019-02-23T20:11:10.319Z,27.17
2019-02-23T20:13:39.690Z,27.14
2019-02-23T20:16:09.053Z,27.21
2019-02-23T20:18:38.315Z,27.26
2019-02-23T20:21:07.662Z,27.37
2019-02-23T20:23:37.978Z,27.24
2019-02-23T20:26:07.267Z,27.40
2019-02-23T20:28:36.744Z,27.35
2019-02-23T20:31:06.014Z,27.45
2019-02-23T20:33:35.917Z,27.65
2019-02-23T20:36:05.555Z,27.70
2019-02-23T20:38:34.930Z,27.49
2019-02-23T20:41:04.049Z,27.59
2019-02-23T20:43:33.124Z,27.64
2019-02-23T20:46:02.239Z,27.85
2019-02-23T20:48:31.279Z,27.56
2019-02-23T20:51:00.364Z,27.67
2019-02-23T20:53:29.408Z,27.81
2019-02-23T20:55:58.460Z,27.92
2019-02-23T20:58:27.559Z,28.30
2019-02-23T21:00:56.671Z,28.21
2019-02-23T21:03:25.764Z,28.28
2019-02-23T21:05:54.813Z,28.34
2019-02-23T21:08:23.934Z,28.45
2019-02-23T21:10:53.801Z,28.59
2019-02-23T21:13:22.849Z,28.68
2019-02-23T21:15:51.946Z,28.85
2019-02-23T21:18:21.004Z,28.95
2019-02-23T21:20:51.611Z,29.00
2019-02-23T21:23:20.906Z,29.13
2019-02-23T21:25:50.070Z,29.21
2019-02-23T21:28:19.158Z,29.23
2019-02-23T21:30:48.243Z,29.36
2019-02-23T21:33:17.324Z,29.33
2019-02-23T21:35:46.439Z,29.45
2019-02-23T21:38:15.505Z,29.52
2019-02-23T21:40:44.661Z,29.65
2019-02-23T21:43:13.780Z,29.74
2019-02-23T21:45:42.959Z,29.87
2019-02-23T21:48:12.090Z,30.02
2019-02-23T21:50:41.200Z,30.18
2019-02-23T21:53:10.313Z,30.28
2019-02-23T21:55:39.554Z,30.21
2019-02-23T21:58:08.837Z,30.49
2019-02-23T22:00:38.011Z,30.56
2019-02-23T22:03:07.249Z,30.28
2019-02-23T22:05:36.378Z,30.33
2019-02-23T22:08:05.496Z,30.22
2019-02-23T22:10:34.704Z,30.21
2019-02-23T22:13:03.774Z,30.20
2019-02-23T22:15:32.937Z,30.06
2019-02-23T22:18:02.082Z,30.16
2019-02-23T22:20:31.143Z,30.17
2019-02-23T22:23:00.291Z,30.20
2019-02-23T22:25:29.588Z,30.18
2019-02-23T22:27:58.674Z,30.29
2019-02-23T22:30:27.748Z,30.17
2019-02-23T22:32:56.845Z,30.08
2019-02-23T22:35:25.925Z,30.31
2019-02-23T22:37:55.045Z,30.29
2019-02-23T22:40:24.196Z,30.39
2019-02-23T22:42:53.306Z,30.32
2019-02-23T22:45:22.403Z,30.44
2019-02-23T22:47:51.590Z,30.53
2019-02-23T22:50:21.588Z,30.46
2019-02-23T22:52:50.730Z,30.50
2019-02-23T22:55:19.815Z,30.73
2019-02-23T22:57:48.956Z,30.85
2019-02-23T23:00:23.846Z,30.80
2019-02-23T23:02:53.027Z,31.15
2019-02-23T23:05:22.128Z,31.57
2019-02-23T23:07:51.206Z,31.50
2019-02-23T23:10:20.340Z,31.50
2019-02-23T23:12:49.445Z,31.40
2019-02-23T23:15:18.545Z,31.49
2019-02-23T23:17:47.678Z,31.53
2019-02-23T23:20:16.791Z,31.00
2019-02-23T23:22:45.968Z,31.10
2019-02-23T23:25:15.040Z,31.18
2019-02-23T23:27:49.337Z,30.99
2019-02-23T23:30:15.071Z,31.16
2019-02-23T23:32:44.187Z,30.94
2019-02-23T23:35:13.314Z,30.82
2019-02-23T23:37:42.385Z,30.89
2019-02-23T23:40:11.506Z,30.43
2019-02-23T23:42:40.668Z,30.46
2019-02-23T23:45:09.784Z,30.35
2019-02-23T23:47:38.837Z,30.87
2019-02-23T23:50:07.921Z,30.38
2019-02-23T23:52:36.998Z,29.96
2019-02-23T23:55:06.100Z,29.62
2019-02-23T23:57:35.173Z,29.67
